Current Weather

Watertown Muni

Watertown, Wisconsin (KRYV)

Report from: Wednesday, May 29, 2024 2:55 AM CDT
Current time: Wednesday, May 29, 2024 3:17 AM CDT

Nearby weather – Weather history – Daily summaries
Weather forecast

Temperature12.0°C (53.6°F)
Dew point12.0°C (53.6°F)
Winds Calm
Visibility10 mi. (16.1 km)
Clouds Ceiling: Overcast 6,000 ft. (1,829 m)
Altimeter30.10 in.Hg (1019 mB)
Relative humidity100 %
Density altitude-366 ft. (-112 m)
Remarks Fully automated report
Automated weather observing station with precipitation discriminator
Flight conditions Visual Meteorological Conditions
Raw dataKRYV 290755Z AUTO 00000KT 10SM OVC060 12/12 A3010 RMK AO2 T01200120
An error has occurred. This application may no longer respond until reloaded. Reload 🗙